Time;durP1;ratioP1;P1;durP2;ratioP2;P2;SDS_P1;SDS_P2;PMS_P1;PMS_P2;Temp;Humidity;BMP_temperature;BMP_pressure;BME280_temperature;BME280_humidity;BME280_pressure;Samples;Min_cycle;Max_cycle;Signal;HPM_P1;HPM_P2
2023/12/16 00:01:16;;;;;;;;;;;;;;;3.14;62.02;101006.00;4513725;31;33983;-87
2023/12/16 00:03:44;;;;;;;;;;;;;;;2.74;62.98;101017.56;4498963;31;34853;-88
2023/12/16 00:06:11;;;;;;;;;;;;;;;2.81;62.89;101030.06;4513970;31;34626;-88
2023/12/16 00:08:39;;;;;;;;;;;;;;;3.08;61.96;101026.03;4514145;31;35292;-88
2023/12/16 00:11:06;;;;;;;;;;;;;;;3.16;61.91;101004.41;4513278;31;33230;-87
2023/12/16 00:13:34;;;;;;;;;;;;;;;3.37;61.18;101004.13;4498681;31;33661;-88
2023/12/16 00:16:01;;;;;;;;;;;;;;;2.93;62.56;101010.44;4510643;31;34400;-88
2023/12/16 00:18:29;;;;;;;;;;;;;;;3.47;60.98;101008.25;4502446;31;35163;-88
2023/12/16 00:20:56;;;;;;;;;;;;;;;3.28;61.20;101006.94;4509865;31;33257;-88
2023/12/16 00:23:23;;;;;;;;;;;;;;;3.47;60.63;101015.94;4509624;31;34070;-87
2023/12/16 00:25:51;;;;;;;;;;;;;;;3.51;60.30;101013.72;4498549;31;34294;-88
2023/12/16 00:28:18;;;;;;;;;;;;;;;3.51;60.25;101017.94;4509775;31;33837;-88
2023/12/16 00:30:46;;;;;;;;;;;;;;;2.86;62.40;101018.47;4507628;31;33441;-88
2023/12/16 00:33:13;;;;;;;;;;;;;;;3.41;60.92;101011.28;4506365;31;33829;-88
2023/12/16 00:35:41;;;;;;;;;;;;;;;3.17;61.43;101010.41;4500671;31;34833;-88
2023/12/16 00:38:08;;;;;;;;;;;;;;;3.42;60.72;101008.84;4487209;31;34751;-87
2023/12/16 00:40:35;;;;;;;;;;;;;;;3.44;60.58;101008.03;4505650;31;34340;-88
2023/12/16 00:43:03;;;;;;;;;;;;;;;3.52;60.15;101015.47;4512555;31;34086;-87
2023/12/16 00:45:30;;;;;;;;;;;;;;;3.67;59.64;101013.09;4501834;31;34194;-88
2023/12/16 00:47:58;;;;;;;;;;;;;;;3.50;59.99;101011.03;4507822;31;34413;-88
2023/12/16 00:50:25;;;;;;;;;;;;;;;2.91;61.21;101022.22;4505541;31;33283;-87
2023/12/16 00:52:52;;;;;;;;;;;;;;;3.32;60.41;101021.78;4477226;32;34642;-88
2023/12/16 00:55:20;;;;;;;;;;;;;;;3.21;60.85;101026.91;4482097;32;33759;-88
2023/12/16 00:57:47;;;;;;;;;;;;;;;2.89;61.72;101033.16;4482998;32;34261;-87
2023/12/16 01:00:14;;;;;;;;;;;;;;;3.09;61.39;101042.31;4480985;32;34042;-88
2023/12/16 01:02:42;;;;;;;;;;;;;;;3.04;61.51;101026.59;4484164;32;34876;-88
2023/12/16 01:05:09;;;;;;;;;;;;;;;3.10;61.40;101029.59;4479334;32;35249;-88
2023/12/16 01:07:36;;;;;;;;;;;;;;;2.67;62.77;101039.25;4468432;32;33780;-88
2023/12/16 01:10:05;;;;;;;;;;;;;;;3.04;61.58;101041.97;4467755;32;34306;-88
2023/12/16 01:12:32;;;;;;;;;;;;;;;3.11;61.28;101038.19;4468075;32;33113;-86
2023/12/16 01:14:59;;;;;;;;;;;;;;;2.95;61.48;101041.28;4469601;32;35257;-87
2023/12/16 01:17:28;;;;;;;;;;;;;;;3.03;61.29;101037.63;4471503;32;34466;-86
2023/12/16 01:19:55;;;;;;;;;;;;;;;2.98;61.43;101038.06;4483365;32;33651;-87
2023/12/16 01:22:22;;;;;;;;;;;;;;;3.03;61.05;101046.97;4483863;32;33476;-87
2023/12/16 01:24:50;;;;;;;;;;;;;;;3.15;60.44;101042.75;4482990;32;34749;-87
2023/12/16 01:27:17;;;;;;;;;;;;;;;2.89;61.60;101054.56;4482691;32;34068;-87
2023/12/16 01:29:45;;;;;;;;;;;;;;;3.03;61.07;101045.31;4483901;32;33523;-87
2023/12/16 01:32:12;;;;;;;;;;;;;;;3.11;60.78;101043.31;4483736;32;34850;-87
2023/12/16 01:34:39;;;;;;;;;;;;;;;3.23;60.53;101046.75;4468271;32;33543;-87
2023/12/16 01:37:06;;;;;;;;;;;;;;;3.14;60.75;101047.00;4468199;32;33515;-87
2023/12/16 01:39:34;;;;;;;;;;;;;;;3.24;60.44;101058.78;4481625;32;33463;-88
2023/12/16 01:42:02;;;;;;;;;;;;;;;3.26;60.04;101062.38;4481859;32;34100;-87
2023/12/16 01:44:29;;;;;;;;;;;;;;;3.19;60.13;101060.13;4468074;32;34193;-87
2023/12/16 01:46:56;;;;;;;;;;;;;;;3.24;60.32;101056.22;4467958;32;34485;-87
2023/12/16 01:49:24;;;;;;;;;;;;;;;3.04;60.85;101059.03;4468045;32;33700;-87
2023/12/16 01:51:51;;;;;;;;;;;;;;;2.93;61.36;101054.00;4474170;31;32817;-87
2023/12/16 01:54:19;;;;;;;;;;;;;;;2.96;61.55;101055.00;4487236;31;34794;-88
2023/12/16 01:56:47;;;;;;;;;;;;;;;2.99;61.45;101053.53;4497729;31;34098;-87
2023/12/16 01:59:14;;;;;;;;;;;;;;;3.24;60.75;101057.91;4495629;31;33207;-87
2023/12/16 02:01:41;;;;;;;;;;;;;;;2.97;61.38;101069.59;4487021;31;33848;-88
2023/12/16 02:04:09;;;;;;;;;;;;;;;2.93;61.64;101055.66;4496582;31;33577;-88
2023/12/16 02:06:39;;;;;;;;;;;;;;;3.02;61.38;101042.62;4493691;31;35235;-87
2023/12/16 02:09:07;;;;;;;;;;;;;;;3.16;61.06;101055.66;4485231;31;33469;-86
2023/12/16 02:11:34;;;;;;;;;;;;;;;2.93;61.55;101050.56;4496201;31;34928;-87
2023/12/16 02:14:01;;;;;;;;;;;;;;;2.60;62.25;101048.94;4495494;31;34069;-87
2023/12/16 02:16:29;;;;;;;;;;;;;;;2.69;62.43;101041.97;4497246;31;34333;-87
2023/12/16 02:18:56;;;;;;;;;;;;;;;2.58;62.66;101047.94;4491463;31;33539;-87
2023/12/16 02:21:23;;;;;;;;;;;;;;;2.92;61.83;101059.91;4486123;31;35035;-86
2023/12/16 02:23:51;;;;;;;;;;;;;;;2.72;62.49;101061.75;4495244;31;33962;-87
2023/12/16 02:26:18;;;;;;;;;;;;;;;2.77;62.23;101065.56;4497575;31;35625;-87
2023/12/16 02:28:45;;;;;;;;;;;;;;;2.90;61.68;101078.50;4496437;31;33480;-86
2023/12/16 02:31:12;;;;;;;;;;;;;;;2.92;61.71;101075.28;4495009;31;33972;-87
2023/12/16 02:33:40;;;;;;;;;;;;;;;2.75;62.24;101067.13;4486269;31;33801;-86
2023/12/16 02:36:07;;;;;;;;;;;;;;;2.93;61.62;101079.62;4483356;31;35105;-88
2023/12/16 02:38:35;;;;;;;;;;;;;;;2.88;61.58;101073.28;4493211;31;33943;-87
2023/12/16 02:41:02;;;;;;;;;;;;;;;2.99;61.36;101068.91;4493295;31;34062;-88
2023/12/16 02:43:29;;;;;;;;;;;;;;;3.09;60.93;101067.94;4492730;31;34407;-87
2023/12/16 02:45:57;;;;;;;;;;;;;;;3.06;60.78;101066.03;4489090;31;33649;-87
2023/12/16 02:48:24;;;;;;;;;;;;;;;3.02;60.90;101086.19;4493540;31;33334;-86
2023/12/16 02:50:51;;;;;;;;;;;;;;;3.01;60.79;101080.19;4497312;31;34988;-87
2023/12/16 02:53:19;;;;;;;;;;;;;;;2.68;61.62;101089.69;4511414;31;35079;-87
2023/12/16 02:55:46;;;;;;;;;;;;;;;2.73;61.46;101097.75;4508756;31;34361;-87
2023/12/16 02:58:13;;;;;;;;;;;;;;;2.78;61.58;101098.09;4513533;31;33587;-86
2023/12/16 03:00:41;;;;;;;;;;;;;;;2.76;61.69;101105.63;4492215;31;34847;-86
2023/12/16 03:03:08;;;;;;;;;;;;;;;2.62;61.90;101103.75;4501930;31;35211;-86
2023/12/16 03:05:36;;;;;;;;;;;;;;;2.64;61.98;101107.28;4485132;31;34837;-87
2023/12/16 03:08:03;;;;;;;;;;;;;;;1.87;64.51;101101.41;4511086;31;33302;-87
2023/12/16 03:10:33;;;;;;;;;;;;;;;2.49;62.91;101108.69;4487043;31;34111;-87
2023/12/16 03:13:00;;;;;;;;;;;;;;;2.72;61.75;101108.75;4499593;31;35091;-87
2023/12/16 03:15:27;;;;;;;;;;;;;;;2.84;61.39;101116.44;4509824;31;33404;-87
2023/12/16 03:17:54;;;;;;;;;;;;;;;2.36;62.50;101124.78;4513737;31;33534;-85
2023/12/16 03:20:22;;;;;;;;;;;;;;;2.59;62.40;101124.87;4488679;31;32855;-86
2023/12/16 03:22:49;;;;;;;;;;;;;;;2.22;63.15;101113.47;4514434;31;35255;-86
2023/12/16 03:25:16;;;;;;;;;;;;;;;2.59;62.93;101113.75;4511181;31;34226;-86
2023/12/16 03:27:44;;;;;;;;;;;;;;;1.96;64.82;101111.47;4507862;31;32887;-87
2023/12/16 03:30:11;;;;;;;;;;;;;;;2.41;63.77;101121.78;4500342;31;33179;-87
2023/12/16 03:32:39;;;;;;;;;;;;;;;2.71;62.80;101121.44;4500899;31;34016;-87
2023/12/16 03:35:06;;;;;;;;;;;;;;;2.39;63.64;101122.47;4507257;31;34050;-87
2023/12/16 03:37:34;;;;;;;;;;;;;;;2.58;62.67;101119.66;4499876;31;33278;-87
2023/12/16 03:40:02;;;;;;;;;;;;;;;2.59;62.73;101123.97;4508582;31;34018;-87
2023/12/16 03:42:29;;;;;;;;;;;;;;;2.01;64.56;101129.72;4495530;31;34222;-85
2023/12/16 03:44:56;;;;;;;;;;;;;;;2.07;64.94;101140.44;4508461;31;35551;-86
2023/12/16 03:47:24;;;;;;;;;;;;;;;2.20;64.47;101140.62;4507383;31;33102;-86
2023/12/16 03:49:51;;;;;;;;;;;;;;;2.47;63.83;101143.53;4503946;31;35022;-85
2023/12/16 03:52:18;;;;;;;;;;;;;;;2.62;63.15;101145.59;4510753;31;33984;-85
2023/12/16 03:54:46;;;;;;;;;;;;;;;2.76;62.61;101148.28;4496954;31;33566;-85
2023/12/16 03:57:13;;;;;;;;;;;;;;;2.90;61.91;101140.88;4499228;31;33704;-86
2023/12/16 03:59:41;;;;;;;;;;;;;;;2.97;61.42;101147.34;4505755;31;35191;-87
2023/12/16 04:02:08;;;;;;;;;;;;;;;2.95;61.61;101143.75;4496865;31;34391;-88
2023/12/16 04:04:35;;;;;;;;;;;;;;;2.63;62.73;101143.91;4503635;31;34029;-85
2023/12/16 04:07:03;;;;;;;;;;;;;;;2.49;63.32;101144.53;4501746;31;33336;-86
2023/12/16 04:09:30;;;;;;;;;;;;;;;2.84;62.23;101143.00;4502826;31;34273;-86
2023/12/16 04:11:57;;;;;;;;;;;;;;;2.72;62.35;101143.72;4511254;31;34225;-88
2023/12/16 04:14:25;;;;;;;;;;;;;;;2.58;63.38;101151.25;4506880;31;35084;-85
2023/12/16 04:16:52;;;;;;;;;;;;;;;2.46;63.63;101157.97;4502788;31;33454;-86
2023/12/16 04:19:20;;;;;;;;;;;;;;;2.61;62.64;101163.38;4491704;31;33719;-85
2023/12/16 04:21:47;;;;;;;;;;;;;;;2.58;62.52;101164.06;4513360;31;34930;-85
2023/12/16 04:24:15;;;;;;;;;;;;;;;2.56;62.45;101174.94;4503725;31;34121;-87
2023/12/16 04:26:42;;;;;;;;;;;;;;;2.74;61.78;101173.81;4515322;31;33483;-87
2023/12/16 04:29:09;;;;;;;;;;;;;;;2.87;61.32;101176.50;4516041;31;34922;-87
2023/12/16 04:31:38;;;;;;;;;;;;;;;3.06;60.61;101175.31;4515796;31;34350;-86
2023/12/16 04:34:05;;;;;;;;;;;;;;;3.04;60.70;101171.78;4515069;31;34302;-85
2023/12/16 04:36:33;;;;;;;;;;;;;;;2.69;61.25;101167.44;4505288;31;33570;-86
2023/12/16 04:39:00;;;;;;;;;;;;;;;2.47;62.55;101179.37;4501229;31;33568;-86
2023/12/16 04:41:28;;;;;;;;;;;;;;;2.31;63.50;101188.44;4514497;31;34735;-85
2023/12/16 04:43:55;;;;;;;;;;;;;;;2.01;64.78;101184.38;4501031;31;33726;-86
2023/12/16 04:46:22;;;;;;;;;;;;;;;1.42;67.45;101189.00;4515515;31;33179;-86
2023/12/16 04:48:50;;;;;;;;;;;;;;;1.58;67.64;101188.59;4515831;31;33734;-86
2023/12/16 04:51:17;;;;;;;;;;;;;;;1.93;66.38;101201.66;4512840;31;34143;-86
2023/12/16 04:53:44;;;;;;;;;;;;;;;1.86;66.45;101201.06;4500066;31;34431;-84
2023/12/16 04:56:11;;;;;;;;;;;;;;;1.96;66.26;101193.31;4511368;31;33534;-84
2023/12/16 04:58:39;;;;;;;;;;;;;;;1.93;66.22;101198.19;4482792;31;32815;-87
2023/12/16 05:01:06;;;;;;;;;;;;;;;2.23;65.83;101204.81;4507176;31;34393;-87
2023/12/16 05:03:34;;;;;;;;;;;;;;;2.05;65.89;101200.84;4515704;31;34593;-85
2023/12/16 05:06:01;;;;;;;;;;;;;;;1.92;66.92;101196.41;4487504;31;32286;-85
2023/12/16 05:08:29;;;;;;;;;;;;;;;1.98;66.82;101198.56;4514941;31;33775;-85
2023/12/16 05:10:57;;;;;;;;;;;;;;;2.25;66.13;101192.16;4500610;31;34315;-89
2023/12/16 05:13:24;;;;;;;;;;;;;;;2.25;65.82;101193.06;4488450;31;34517;-87
2023/12/16 05:15:51;;;;;;;;;;;;;;;2.25;65.83;101200.75;4513643;31;34148;-85
2023/12/16 05:18:19;;;;;;;;;;;;;;;2.24;66.33;101201.53;4515721;31;34090;-86
2023/12/16 05:20:46;;;;;;;;;;;;;;;2.15;66.19;101200.78;4515248;31;34196;-86
2023/12/16 05:23:14;;;;;;;;;;;;;;;1.92;66.97;101204.97;4512947;31;33796;-85
2023/12/16 05:25:42;;;;;;;;;;;;;;;2.30;65.87;101216.44;4507195;31;33637;-86
2023/12/16 05:28:09;;;;;;;;;;;;;;;2.47;65.65;101210.09;4514419;31;34055;-86
2023/12/16 05:30:36;;;;;;;;;;;;;;;2.30;65.47;101214.78;4515547;31;35222;-86
2023/12/16 05:33:05;;;;;;;;;;;;;;;2.69;64.53;101223.78;4514102;31;35069;-86
2023/12/16 05:35:32;;;;;;;;;;;;;;;2.66;63.93;101216.75;4515906;31;33264;-86
2023/12/16 05:38:00;;;;;;;;;;;;;;;2.66;63.83;101229.56;4515284;31;33668;-87
2023/12/16 05:40:30;;;;;;;;;;;;;;;2.43;64.86;101237.13;4515193;31;35107;-86
2023/12/16 05:42:57;;;;;;;;;;;;;;;2.40;65.25;101229.19;4512754;31;35051;-86
2023/12/16 05:45:24;;;;;;;;;;;;;;;2.61;64.86;101225.75;4515560;31;34355;-86
2023/12/16 05:47:52;;;;;;;;;;;;;;;3.02;63.32;101229.69;4513720;31;34789;-87
2023/12/16 05:50:19;;;;;;;;;;;;;;;2.83;62.94;101223.16;4485748;31;32910;-87
2023/12/16 05:52:46;;;;;;;;;;;;;;;2.75;62.93;101231.91;4514122;31;35161;-86
2023/12/16 05:55:14;;;;;;;;;;;;;;;2.73;63.12;101235.12;4515367;31;33385;-87
2023/12/16 05:57:41;;;;;;;;;;;;;;;2.57;63.37;101228.81;4515420;31;34835;-88
2023/12/16 06:00:09;;;;;;;;;;;;;;;3.14;61.71;101222.91;4497547;31;35124;-86
2023/12/16 06:02:36;;;;;;;;;;;;;;;2.97;61.75;101220.75;4511802;31;34816;-86
2023/12/16 06:05:04;;;;;;;;;;;;;;;3.17;61.05;101225.72;4515190;31;33509;-86
2023/12/16 06:07:31;;;;;;;;;;;;;;;3.12;60.96;101225.38;4515329;31;33515;-87
2023/12/16 06:09:59;;;;;;;;;;;;;;;3.09;60.74;101231.94;4513117;31;34395;-86
2023/12/16 06:12:26;;;;;;;;;;;;;;;2.66;62.42;101233.78;4499311;31;34855;-86
2023/12/16 06:14:54;;;;;;;;;;;;;;;2.61;62.62;101243.69;4485211;31;34287;-86
2023/12/16 06:17:21;;;;;;;;;;;;;;;2.29;64.07;101251.38;4499326;31;34889;-86
2023/12/16 06:19:49;;;;;;;;;;;;;;;2.22;63.67;101254.22;4498703;31;33759;-87
2023/12/16 06:22:16;;;;;;;;;;;;;;;2.40;63.22;101258.25;4489083;31;33062;-85
2023/12/16 06:24:43;;;;;;;;;;;;;;;2.61;62.80;101253.94;4502731;31;33978;-87
2023/12/16 06:27:11;;;;;;;;;;;;;;;1.95;64.39;101256.38;4502967;31;34250;-87
2023/12/16 06:29:41;;;;;;;;;;;;;;;2.25;64.39;101253.59;4496957;31;34289;-88
2023/12/16 06:32:08;;;;;;;;;;;;;;;2.71;63.33;101245.28;4510147;31;34635;-85
2023/12/16 06:34:36;;;;;;;;;;;;;;;2.70;62.39;101246.06;4494798;31;32771;-88
2023/12/16 06:37:03;;;;;;;;;;;;;;;3.04;61.66;101246.06;4498325;31;32551;-86
2023/12/16 06:39:30;;;;;;;;;;;;;;;2.93;61.86;101256.41;4501936;31;34117;-86
2023/12/16 06:41:58;;;;;;;;;;;;;;;2.17;63.66;101269.22;4510021;31;35141;-85
2023/12/16 06:44:25;;;;;;;;;;;;;;;2.75;62.45;101260.09;4502148;31;33335;-86
2023/12/16 06:46:52;;;;;;;;;;;;;;;3.12;61.11;101250.09;4508992;31;33804;-87
2023/12/16 06:49:19;;;;;;;;;;;;;;;2.80;61.80;101257.88;4494331;31;33570;-86
2023/12/16 06:51:47;;;;;;;;;;;;;;;2.74;61.99;101257.44;4496239;31;33747;-86
2023/12/16 06:54:14;;;;;;;;;;;;;;;2.48;62.83;101265.62;4478055;31;32753;-86
2023/12/16 06:56:41;;;;;;;;;;;;;;;2.80;62.31;101273.25;4490521;31;33927;-85
2023/12/16 06:59:09;;;;;;;;;;;;;;;2.43;63.22;101275.53;4477025;31;33878;-84
2023/12/16 07:01:36;;;;;;;;;;;;;;;2.77;62.49;101281.63;4499208;31;34471;-85
2023/12/16 07:04:03;;;;;;;;;;;;;;;2.56;63.21;101298.75;4491654;31;33424;-85
2023/12/16 07:06:31;;;;;;;;;;;;;;;2.66;63.91;101295.25;4492055;31;33187;-85
2023/12/16 07:09:00;;;;;;;;;;;;;;;2.80;63.38;101294.63;4502166;31;36034;-84
2023/12/16 07:11:28;;;;;;;;;;;;;;;2.96;63.08;101300.97;4510591;31;34712;-86
2023/12/16 07:13:56;;;;;;;;;;;;;;;2.98;63.19;101287.47;4497942;31;33903;-85
2023/12/16 07:16:23;;;;;;;;;;;;;;;3.09;62.74;101285.75;4492333;31;34241;-86
2023/12/16 07:18:50;;;;;;;;;;;;;;;3.06;62.91;101290.63;4488524;31;34378;-85
2023/12/16 07:21:18;;;;;;;;;;;;;;;3.23;62.27;101300.50;4493682;31;35431;-85
2023/12/16 07:23:45;;;;;;;;;;;;;;;3.39;62.07;101307.69;4490797;31;32920;-86
2023/12/16 07:26:12;;;;;;;;;;;;;;;3.03;62.94;101313.44;4488638;31;32632;-85
2023/12/16 07:28:39;;;;;;;;;;;;;;;2.91;63.24;101319.41;4491325;31;32733;-84
2023/12/16 07:31:07;;;;;;;;;;;;;;;2.61;65.19;101325.63;4508012;31;34448;-86
2023/12/16 07:33:37;;;;;;;;;;;;;;;2.65;65.21;101314.84;4500416;31;33128;-87
2023/12/16 07:36:04;;;;;;;;;;;;;;;2.72;65.07;101316.19;4504080;31;33993;-86
2023/12/16 07:38:32;;;;;;;;;;;;;;;2.68;65.36;101311.63;4505967;31;34106;-86
2023/12/16 07:40:59;;;;;;;;;;;;;;;2.89;65.01;101320.09;4511186;31;35041;-87
2023/12/16 07:43:27;;;;;;;;;;;;;;;2.93;64.68;101317.88;4483429;31;33132;-87
2023/12/16 07:45:54;;;;;;;;;;;;;;;2.77;65.10;101314.03;4483107;31;33358;-86
2023/12/16 07:48:21;;;;;;;;;;;;;;;3.10;64.58;101314.03;4491578;31;33003;-86
2023/12/16 07:50:53;;;;;;;;;;;;;;;3.09;64.69;101314.81;4486572;31;85060;-86
2023/12/16 07:53:21;;;;;;;;;;;;;;;3.20;64.29;101307.97;4489267;31;33598;-86
2023/12/16 07:55:48;;;;;;;;;;;;;;;3.04;64.97;101310.12;4509844;31;33908;-86
2023/12/16 07:58:16;;;;;;;;;;;;;;;2.73;66.40;101318.00;4491512;31;33926;-87
2023/12/16 08:00:43;;;;;;;;;;;;;;;2.85;66.10;101318.97;4506788;31;34539;-87
2023/12/16 08:03:11;;;;;;;;;;;;;;;3.04;65.47;101325.50;4503944;31;34266;-86
2023/12/16 08:05:39;;;;;;;;;;;;;;;3.17;64.88;101329.13;4499055;31;34078;-87
2023/12/16 08:08:06;;;;;;;;;;;;;;;3.47;64.03;101329.66;4507882;31;34756;-85
2023/12/16 08:10:34;;;;;;;;;;;;;;;3.07;65.92;101325.72;4509326;31;34405;-87
2023/12/16 08:13:01;;;;;;;;;;;;;;;3.29;65.03;101334.28;4505344;31;33373;-88
2023/12/16 08:15:28;;;;;;;;;;;;;;;3.15;66.01;101333.25;4498246;31;34377;-87
2023/12/16 08:17:56;;;;;;;;;;;;;;;3.04;66.10;101325.50;4497722;31;33927;-85
2023/12/16 08:20:23;;;;;;;;;;;;;;;2.78;67.07;101332.06;4497794;31;34690;-87
2023/12/16 08:22:50;;;;;;;;;;;;;;;3.31;65.80;101337.88;4497927;31;33002;-85
2023/12/16 08:25:18;;;;;;;;;;;;;;;3.13;66.44;101341.59;4497952;31;33764;-86
2023/12/16 08:27:45;;;;;;;;;;;;;;;3.33;66.26;101328.66;4500777;31;34300;-86
2023/12/16 08:30:13;;;;;;;;;;;;;;;3.64;65.39;101331.84;4507093;31;34150;-87
2023/12/16 08:32:41;;;;;;;;;;;;;;;3.13;66.69;101333.91;4502841;31;34462;-86
2023/12/16 08:35:09;;;;;;;;;;;;;;;3.79;64.96;101331.19;4506653;31;34050;-88
2023/12/16 08:37:36;;;;;;;;;;;;;;;3.28;66.65;101345.31;4505126;31;33427;-88
2023/12/16 08:40:05;;;;;;;;;;;;;;;3.47;66.22;101344.16;4513481;31;33944;-88
2023/12/16 08:42:32;;;;;;;;;;;;;;;3.09;67.56;101354.94;4513297;31;33421;-88
2023/12/16 08:44:59;;;;;;;;;;;;;;;3.38;66.70;101350.38;4513356;31;34992;-88
2023/12/16 08:47:28;;;;;;;;;;;;;;;3.36;66.73;101349.38;4506985;31;33915;-87
2023/12/16 08:49:55;;;;;;;;;;;;;;;3.21;67.44;101353.31;4506515;31;33461;-86
2023/12/16 08:52:22;;;;;;;;;;;;;;;3.48;66.64;101367.34;4499719;31;33281;-86
2023/12/16 08:54:50;;;;;;;;;;;;;;;3.23;67.47;101359.47;4513763;31;34243;-86
2023/12/16 08:57:17;;;;;;;;;;;;;;;3.53;66.81;101350.66;4515002;31;35142;-87
2023/12/16 08:59:44;;;;;;;;;;;;;;;3.66;66.64;101355.03;4513772;31;33920;-86
2023/12/16 09:02:12;;;;;;;;;;;;;;;3.60;67.10;101352.03;4513882;31;33542;-86
2023/12/16 09:04:39;;;;;;;;;;;;;;;3.53;66.61;101352.34;4499119;31;33917;-87
2023/12/16 09:07:06;;;;;;;;;;;;;;;3.83;66.23;101344.38;4498996;31;33878;-86
2023/12/16 09:09:34;;;;;;;;;;;;;;;3.81;66.25;101342.47;4497988;31;33509;-87
2023/12/16 09:12:01;;;;;;;;;;;;;;;3.85;66.68;101342.78;4497716;31;32981;-86
2023/12/16 09:14:28;;;;;;;;;;;;;;;3.72;67.03;101337.56;4499609;31;33988;-86
2023/12/16 09:16:56;;;;;;;;;;;;;;;4.01;66.13;101342.25;4499889;31;33747;-87
2023/12/16 09:19:23;;;;;;;;;;;;;;;4.05;66.47;101340.81;4499471;31;34175;-86
2023/12/16 09:21:51;;;;;;;;;;;;;;;3.83;67.64;101346.06;4485408;31;34234;-88
2023/12/16 09:24:19;;;;;;;;;;;;;;;3.66;68.05;101334.50;4499608;31;33771;-87
2023/12/16 09:26:47;;;;;;;;;;;;;;;3.76;67.67;101338.66;4499360;31;34164;-88
2023/12/16 09:29:14;;;;;;;;;;;;;;;3.75;68.30;101340.34;4496686;31;34341;-88
2023/12/16 09:31:42;;;;;;;;;;;;;;;4.07;67.55;101341.84;4511509;31;34263;-88
2023/12/16 09:34:09;;;;;;;;;;;;;;;4.27;66.94;101330.44;4509649;31;34150;-88
2023/12/16 09:36:36;;;;;;;;;;;;;;;4.18;67.40;101332.34;4485138;31;34108;-88
2023/12/16 09:39:04;;;;;;;;;;;;;;;4.30;67.15;101338.37;4499462;31;34205;-88
2023/12/16 09:41:31;;;;;;;;;;;;;;;4.07;67.84;101329.00;4502672;31;32908;-87
2023/12/16 09:43:59;;;;;;;;;;;;;;;4.05;68.43;101335.69;4512358;31;34672;-87
2023/12/16 09:46:30;;;;;;;;;;;;;;;4.21;68.38;101333.47;4495973;31;35135;-88
2023/12/16 09:48:59;;;;;;;;;;;;;;;4.15;68.45;101335.56;4502929;31;34171;-88
2023/12/16 09:51:27;;;;;;;;;;;;;;;4.37;67.45;101330.31;4501162;31;33068;-86
2023/12/16 09:53:55;;;;;;;;;;;;;;;4.13;68.88;101332.03;4514900;31;34992;-85
2023/12/16 09:56:22;;;;;;;;;;;;;;;4.57;67.29;101337.78;4495433;31;34085;-85
2023/12/16 09:58:51;;;;;;;;;;;;;;;4.31;68.05;101333.34;4484352;31;34341;-85
2023/12/16 10:01:19;;;;;;;;;;;;;;;4.10;69.24;101331.78;4470998;31;33785;-86
2023/12/16 10:03:47;;;;;;;;;;;;;;;4.20;69.00;101339.34;4485776;31;34584;-87
2023/12/16 10:06:15;;;;;;;;;;;;;;;4.50;67.76;101332.09;4500674;31;33726;-86
2023/12/16 10:08:43;;;;;;;;;;;;;;;4.47;68.08;101330.22;4500587;31;34281;-87
2023/12/16 10:11:11;;;;;;;;;;;;;;;4.53;67.57;101322.03;4502094;31;33519;-86
2023/12/16 10:13:58;;;;;;;;;;;;;;;4.48;68.49;101323.41;4472033;31;33011;-86
2023/12/16 10:16:26;;;;;;;;;;;;;;;4.28;69.21;101315.16;4499298;31;34410;-86
2023/12/16 10:18:54;;;;;;;;;;;;;;;4.85;67.65;101329.47;4484577;31;34317;-89
2023/12/16 10:21:25;;;;;;;;;;;;;;;4.62;68.43;101326.16;4471933;31;33604;-88
2023/12/16 10:23:55;;;;;;;;;;;;;;;5.19;66.37;101319.84;4499002;31;34128;-89
2023/12/16 10:26:23;;;;;;;;;;;;;;;5.24;66.44;101318.47;4499061;31;33871;-91
2023/12/16 10:28:50;;;;;;;;;;;;;;;4.93;67.50;101317.16;4504342;31;34416;-88
2023/12/16 10:31:21;;;;;;;;;;;;;;;4.94;67.56;101308.66;4515036;31;34375;-90
2023/12/16 10:33:49;;;;;;;;;;;;;;;5.06;67.36;101305.22;4500799;31;34299;-88
2023/12/16 10:36:17;;;;;;;;;;;;;;;5.13;66.85;101306.56;4496931;31;34341;-88
2023/12/16 10:38:44;;;;;;;;;;;;;;;5.28;66.59;101299.88;4503162;31;35040;-89
2023/12/16 10:41:12;;;;;;;;;;;;;;;5.16;66.90;101304.19;4518077;31;34703;-88
2023/12/16 10:43:39;;;;;;;;;;;;;;;5.02;67.09;101292.06;4497588;31;34599;-89
2023/12/16 10:46:07;;;;;;;;;;;;;;;4.84;68.13;101299.41;4497876;31;34223;-90
2023/12/16 10:48:35;;;;;;;;;;;;;;;4.79;68.21;101296.50;4499321;31;34847;-84
2023/12/16 10:51:03;;;;;;;;;;;;;;;4.91;68.29;101308.44;4498926;31;33606;-87
2023/12/16 10:53:40;;;;;;;;;;;;;;;4.84;67.83;101297.72;4492754;31;34835;-86
2023/12/16 10:56:21;;;;;;;;;;;;;;;5.09;67.20;101304.56;4484753;31;34159;-87
2023/12/16 10:59:09;;;;;;;;;;;;;;;4.96;67.78;101296.78;4484640;31;34175;-87
2023/12/16 11:01:39;;;;;;;;;;;;;;;4.74;68.50;101297.87;4498863;31;33860;-86
2023/12/16 11:04:15;;;;;;;;;;;;;;;5.39;66.44;101294.59;4484631;31;33699;-85
2023/12/16 11:06:46;;;;;;;;;;;;;;;5.51;66.20;101285.13;4484760;31;34119;-87
2023/12/16 11:09:13;;;;;;;;;;;;;;;5.28;66.88;101286.16;4458511;31;34718;-86
2023/12/16 11:11:42;;;;;;;;;;;;;;;4.94;68.12;101293.22;4484191;31;33699;-87
2023/12/16 11:14:09;;;;;;;;;;;;;;;5.73;65.63;101298.63;4483567;31;33970;-87
2023/12/16 11:16:55;;;;;;;;;;;;;;;5.49;66.38;101291.81;4498541;31;35175;-87
2023/12/16 11:19:23;;;;;;;;;;;;;;;5.27;66.91;101292.97;4498593;31;35088;-85
2023/12/16 11:21:50;;;;;;;;;;;;;;;5.32;66.97;101299.31;4497027;31;34309;-85
2023/12/16 11:24:17;;;;;;;;;;;;;;;5.22;67.16;101280.56;4498565;31;33340;-86
2023/12/16 11:26:52;;;;;;;;;;;;;;;5.30;67.11;101270.03;4497347;31;35098;-88
2023/12/16 11:29:20;;;;;;;;;;;;;;;5.26;67.39;101273.16;4502442;31;34372;-87
2023/12/16 11:31:51;;;;;;;;;;;;;;;5.57;66.37;101285.53;4516004;31;33626;-87
2023/12/16 11:34:37;;;;;;;;;;;;;;;5.33;67.17;101290.78;4530549;31;35227;-86
2023/12/16 11:37:04;;;;;;;;;;;;;;;5.19;67.51;101289.00;4530014;31;34285;-85
2023/12/16 11:39:39;;;;;;;;;;;;;;;5.28;68.01;101287.03;4516235;31;34455;-86
2023/12/16 11:42:07;;;;;;;;;;;;;;;5.11;68.19;101291.03;4490653;31;33338;-86
2023/12/16 11:44:50;;;;;;;;;;;;;;;5.54;66.89;101277.59;4484102;31;33944;-89
2023/12/16 11:47:24;;;;;;;;;;;;;;;5.54;66.78;101275.91;4498250;31;35350;-85
2023/12/16 11:49:55;;;;;;;;;;;;;;;5.06;68.51;101284.66;4486553;31;34231;-88
2023/12/16 11:52:23;;;;;;;;;;;;;;;5.02;68.64;101279.22;4499721;31;33370;-88
2023/12/16 11:54:51;;;;;;;;;;;;;;;4.98;68.96;101279.78;4499740;31;34058;-89
2023/12/16 11:57:19;;;;;;;;;;;;;;;5.33;68.14;101275.38;4503126;31;34421;-86
2023/12/16 11:59:54;;;;;;;;;;;;;;;5.29;68.20;101273.38;4484092;31;33858;-88
2023/12/16 12:02:22;;;;;;;;;;;;;;;5.50;67.68;101273.94;4484106;31;34307;-87
2023/12/16 12:04:49;;;;;;;;;;;;;;;5.07;69.09;101285.56;4495018;31;34680;-87
2023/12/16 12:07:19;;;;;;;;;;;;;;;5.23;68.49;101283.28;4499497;31;34264;-86
2023/12/16 12:09:46;;;;;;;;;;;;;;;5.13;69.29;101278.28;4497786;31;34282;-82
2023/12/16 12:12:14;;;;;;;;;;;;;;;5.28;68.55;101274.16;4513667;31;32888;-90
2023/12/16 12:14:46;;;;;;;;;;;;;;;5.32;68.40;101273.59;4513629;31;34645;-88
2023/12/16 12:17:14;;;;;;;;;;;;;;;5.24;69.24;101272.19;4513710;31;35902;-88
2023/12/16 12:19:43;;;;;;;;;;;;;;;5.29;69.05;101272.50;4489216;31;33279;-87
2023/12/16 12:22:11;;;;;;;;;;;;;;;5.52;68.51;101277.50;4496834;31;32984;-87
2023/12/16 12:24:38;;;;;;;;;;;;;;;5.43;68.50;101270.84;4511954;31;33556;-88
2023/12/16 12:27:06;;;;;;;;;;;;;;;5.58;67.67;101267.63;4485912;31;33447;-88
2023/12/16 12:29:52;;;;;;;;;;;;;;;5.58;67.83;101271.88;4486024;31;33908;-87
2023/12/16 12:32:20;;;;;;;;;;;;;;;5.25;69.14;101260.22;4505909;31;33715;-89
2023/12/16 12:35:01;;;;;;;;;;;;;;;5.50;68.29;101271.37;4502216;31;33303;-87
2023/12/16 12:37:34;;;;;;;;;;;;;;;5.43;68.43;101270.84;4486426;31;35006;-89
2023/12/16 12:40:02;;;;;;;;;;;;;;;5.51;68.44;101265.41;4500409;31;34126;-88
2023/12/16 12:42:42;;;;;;;;;;;;;;;5.46;68.42;101263.34;4490354;31;33476;-88
2023/12/16 12:45:21;;;;;;;;;;;;;;;5.28;68.86;101256.16;4484158;31;34578;-88
2023/12/16 12:47:49;;;;;;;;;;;;;;;5.45;68.12;101254.72;4486396;31;34816;-89
2023/12/16 12:50:24;;;;;;;;;;;;;;;5.85;67.49;101252.19;4489768;31;34279;-88
2023/12/16 12:52:51;;;;;;;;;;;;;;;5.46;68.47;101251.38;4488025;31;32313;-88